Time;durP1;ratioP1;P1;durP2;ratioP2;P2;SDS_P1;SDS_P2;PMS_P1;PMS_P2;Temp;Humidity;BMP_temperature;BMP_pressure;BME280_temperature;BME280_humidity;BME280_pressure;Samples;Min_cycle;Max_cycle;Signal;HPM_P1;HPM_P2
2021/04/12 00:00:21;;;;;;;7.50;4.70;;;;;;;5.26;77.18;100808.84;5069229;28;20435;-82
2021/04/12 00:02:54;;;;;;;7.07;4.80;;;;;;;5.25;76.35;100807.13;5066524;28;20749;-83
2021/04/12 00:05:24;;;;;;;7.00;4.70;;;;;;;5.24;76.15;100794.00;5062745;28;20064;-83
2021/04/12 00:08:05;;;;;;;6.15;4.93;;;;;;;5.30;75.81;100799.16;5064548;28;20059;-83
2021/04/12 00:10:42;;;;;;;5.95;4.97;;;;;;;5.28;75.74;100800.94;5075422;28;20724;-81
2021/04/12 00:13:21;;;;;;;6.15;4.45;;;;;;;5.25;75.58;100799.25;5073317;28;20052;-83
2021/04/12 00:16:14;;;;;;;5.28;4.68;;;;;;;5.21;75.72;100815.06;5069415;28;20127;-81
2021/04/12 00:18:50;;;;;;;7.20;5.18;;;;;;;5.28;75.44;100817.56;5059701;28;20112;-83
2021/04/12 00:21:29;;;;;;;5.50;4.72;;;;;;;5.29;75.32;100806.19;5074774;28;20044;-82
2021/04/12 00:24:22;;;;;;;4.93;4.30;;;;;;;5.28;76.42;100806.19;5070511;28;20052;-83
2021/04/12 00:26:59;;;;;;;7.53;4.93;;;;;;;5.31;77.04;100819.28;5073636;28;20153;-84
2021/04/12 00:29:34;;;;;;;5.03;4.47;;;;;;;5.25;76.15;100801.88;5074287;28;20159;-82
2021/04/12 00:32:17;;;;;;;5.88;4.60;;;;;;;5.30;76.40;100817.53;5074789;28;20124;-83
2021/04/12 00:35:06;;;;;;;6.50;4.90;;;;;;;5.28;76.70;100822.81;5077864;28;20075;-83
2021/04/12 00:37:37;;;;;;;6.05;4.28;;;;;;;5.29;76.64;100821.06;5077866;28;20049;-84
2021/04/12 00:40:10;;;;;;;4.30;3.90;;;;;;;5.31;75.82;100827.16;5075519;28;20052;-84
2021/04/12 00:43:01;;;;;;;5.47;4.00;;;;;;;5.29;75.72;100828.94;5073160;28;20048;-83
2021/04/12 00:45:37;;;;;;;;;;;;;;;5.30;75.64;100846.44;5078908;28;20105;-83
2021/04/12 00:48:16;;;;;;;5.32;3.72;;;;;;;5.31;75.49;100848.16;5091074;28;19928;-83
2021/04/12 00:51:11;;;;;;;5.22;3.75;;;;;;;5.32;75.13;100856.91;5080489;28;20068;-83
2021/04/12 00:54:02;;;;;;;8.25;4.25;;;;;;;5.28;75.16;100843.81;5046203;28;20155;-82
2021/04/12 00:56:47;;;;;;;;;;;;;;;5.27;74.67;100844.72;5087872;28;20028;-82
2021/04/12 00:59:31;;;;;;;7.03;4.30;;;;;;;5.21;75.12;100844.81;5084473;28;19929;-82
2021/04/12 01:02:32;;;;;;;6.65;4.10;;;;;;;5.20;74.27;100842.22;5071966;28;20040;-83
2021/04/12 01:05:19;;;;;;;7.10;4.75;;;;;;;5.15;75.56;100837.06;5077295;28;20132;-84
2021/04/12 01:08:00;;;;;;;4.68;4.10;;;;;;;5.18;76.37;100847.53;5073779;28;20100;-83
2021/04/12 01:10:57;;;;;;;5.60;4.18;;;;;;;5.18;75.24;100849.28;5068965;28;20179;-82
2021/04/12 01:13:47;;;;;;;7.53;4.28;;;;;;;5.18;75.40;100851.91;5067145;28;20109;-82
2021/04/12 01:16:33;;;;;;;7.47;4.13;;;;;;;5.18;75.75;100850.16;5066758;28;20053;-81
2021/04/12 01:19:11;;;;;;;4.55;4.10;;;;;;;5.17;75.97;100845.78;5074639;28;20544;-83
2021/04/12 01:21:59;;;;;;;5.88;4.10;;;;;;;5.23;75.95;100853.53;5070930;28;20048;-80
2021/04/12 01:24:56;;;;;;;5.47;4.18;;;;;;;5.22;75.14;100854.44;5077991;28;20071;-80
2021/04/12 01:27:27;;;;;;;4.70;4.03;;;;;;;5.24;74.86;100872.78;5078032;28;20068;-81
2021/04/12 01:30:14;;;;;;;5.13;3.97;;;;;;;5.26;75.13;100881.50;5060708;28;20507;-81
2021/04/12 01:32:59;;;;;;;4.25;3.70;;;;;;;5.23;74.62;100887.66;5063199;28;20067;-81
2021/04/12 01:35:48;;;;;;;5.32;3.38;;;;;;;5.23;74.18;100890.28;5070858;28;20045;-83
2021/04/12 01:38:22;;;;;;;6.05;3.63;;;;;;;5.21;74.31;100897.31;5067070;28;20049;-81
2021/04/12 01:41:09;;;;;;;5.88;3.42;;;;;;;5.22;74.87;100898.19;5059946;28;20124;-82
2021/04/12 01:44:04;;;;;;;4.80;3.40;;;;;;;5.24;74.31;100899.91;5065303;28;20065;-82
2021/04/12 01:46:49;;;;;;;;;;;;;;;5.23;74.08;100913.94;5066789;28;20048;-82
2021/04/12 01:49:40;;;;;;;6.07;3.55;;;;;;;5.20;73.45;100903.47;5063478;28;19920;-82
2021/04/12 01:52:25;;;;;;;4.97;3.63;;;;;;;5.19;73.65;100893.88;5063669;28;20048;-82
2021/04/12 01:55:02;;;;;;;7.13;3.60;;;;;;;5.18;73.35;100901.78;5065120;28;20116;-82
2021/04/12 01:57:42;;;;;;;4.28;3.40;;;;;;;5.17;73.37;100905.31;5069799;28;20045;-82
2021/04/12 02:01:00;;;;;;;4.32;3.00;;;;;;;5.15;73.37;100909.72;5065393;28;20040;-82
2021/04/12 02:04:04;;;;;;;4.80;3.08;;;;;;;5.14;73.07;100900.97;5037392;28;20059;-81
2021/04/12 02:07:02;;;;;;;4.95;3.00;;;;;;;5.12;73.72;100909.75;5069625;28;20051;-82
2021/04/12 02:09:52;;;;;;;4.20;3.00;;;;;;;5.10;73.70;100922.03;5072851;28;20064;-81
2021/04/12 02:12:38;;;;;;;4.83;2.57;;;;;;;5.07;74.09;100928.19;5072618;28;20040;-81
2021/04/12 02:15:20;;;;;;;4.45;3.17;;;;;;;5.06;73.59;100926.47;5073888;28;20121;-82
2021/04/12 02:18:17;;;;;;;3.20;2.47;;;;;;;5.03;72.80;100921.28;5074147;28;20040;-82
2021/04/12 02:21:02;;;;;;;5.22;2.78;;;;;;;5.05;72.73;100936.97;5072755;28;20115;-81
2021/04/12 02:23:52;;;;;;;3.85;2.78;;;;;;;5.05;71.70;100932.59;5081050;28;20060;-82
2021/04/12 02:26:37;;;;;;;6.22;2.90;;;;;;;5.02;72.01;100940.56;5089167;28;20064;-82
2021/04/12 02:29:28;;;;;;;3.38;2.53;;;;;;;5.00;72.42;100944.94;5082675;28;20056;-82
2021/04/12 02:32:18;;;;;;;4.25;2.97;;;;;;;4.98;73.04;100951.97;5081755;28;20044;-82
2021/04/12 02:34:59;;;;;;;5.75;2.88;;;;;;;4.96;72.77;100945.88;5067988;28;20055;-82
2021/04/12 02:37:48;;;;;;;9.32;3.63;;;;;;;5.01;71.79;100945.81;5075015;28;20136;-82
2021/04/12 02:40:36;;;;;;;4.30;3.67;;;;;;;5.02;71.55;100942.31;5074557;28;20570;-84
2021/04/12 02:43:19;;;;;;;6.10;3.50;;;;;;;4.96;72.29;100950.25;5075714;28;20075;-83
2021/04/12 02:46:23;;;;;;;6.88;3.70;;;;;;;4.93;72.06;100951.16;5070559;28;20110;-83
2021/04/12 02:49:27;;;;;;;5.70;3.85;;;;;;;4.90;72.36;100954.69;5079548;28;20102;-82
2021/04/12 02:52:11;;;;;;;5.28;3.70;;;;;;;4.90;71.97;100966.94;5069380;28;20075;-82
2021/04/12 02:54:56;;;;;;;9.30;4.10;;;;;;;4.87;72.51;100962.66;5081322;28;20045;-83
2021/04/12 02:57:58;;;;;;;4.50;3.67;;;;;;;4.70;72.62;100933.16;5069713;28;20067;-81
2021/04/12 03:00:52;;;;;;;5.40;3.63;;;;;;;4.94;72.60;100974.78;5074933;28;20143;-82
2021/04/12 03:03:33;;;;;;;8.13;3.80;;;;;;;4.96;71.12;100972.13;5075859;28;20072;-82
2021/04/12 03:06:13;;;;;;;5.38;3.75;;;;;;;4.85;70.98;100964.41;5079590;28;20059;-82
2021/04/12 03:08:53;;;;;;;7.72;4.18;;;;;;;4.92;70.87;100981.78;5085985;28;20135;-82
2021/04/12 03:11:59;;;;;;;5.43;3.45;;;;;;;4.89;71.65;100976.59;5074795;28;20045;-82
2021/04/12 03:14:40;;;;;;;7.47;4.22;;;;;;;4.88;71.27;100968.72;5080435;28;20048;-80
2021/04/12 03:17:28;;;;;;;5.22;3.67;;;;;;;4.87;72.20;100978.38;5075863;28;20045;-84
2021/04/12 03:20:32;;;;;;;5.22;3.47;;;;;;;4.87;71.19;100985.41;5067453;28;20063;-81
2021/04/12 03:23:39;;;;;;;3.92;3.25;;;;;;;4.84;70.26;100977.56;5067731;28;20110;-84
2021/04/12 03:26:31;;;;;;;6.63;3.55;;;;;;;4.81;70.56;100977.59;5074692;28;20126;-83
2021/04/12 03:29:25;;;;;;;4.90;3.22;;;;;;;4.80;70.40;100987.22;5041518;28;20127;-83
2021/04/12 03:32:20;;;;;;;4.47;3.30;;;;;;;4.78;70.72;100988.13;5070941;28;20068;-81
2021/04/12 03:35:07;;;;;;;6.18;3.58;;;;;;;4.74;70.04;100984.66;5072574;28;20066;-80
2021/04/12 03:37:59;;;;;;;5.80;3.35;;;;;;;4.78;70.18;100985.50;5087045;28;20044;-84
2021/04/12 03:40:29;;;;;;;7.35;3.15;;;;;;;4.77;69.53;100981.16;5082763;28;20067;-80
2021/04/12 03:43:14;;;;;;;;;;;;;;;4.76;69.92;100989.91;5068277;28;20056;-82
2021/04/12 03:46:05;;;;;;;6.03;2.97;;;;;;;4.72;69.51;100990.84;5074298;28;19920;-81
2021/04/12 03:48:45;;;;;;;3.28;2.80;;;;;;;4.69;69.40;100996.13;5077717;28;20049;-81
2021/04/12 03:51:26;;;;;;;6.72;3.05;;;;;;;4.71;68.87;100997.84;5068045;28;20124;-82
2021/04/12 03:54:22;;;;;;;5.43;3.00;;;;;;;4.71;68.90;101010.97;5075038;28;20089;-79
2021/04/12 03:56:51;;;;;;;4.55;2.50;;;;;;;4.70;67.60;101016.25;5090613;28;20131;-83
2021/04/12 03:59:31;;;;;;;4.88;2.75;;;;;;;4.66;67.92;101019.78;5087319;28;20045;-83
2021/04/12 04:02:12;;;;;;;5.17;3.37;;;;;;;4.62;67.87;101028.56;5085551;28;20100;-82
2021/04/12 04:05:03;;;;;;;4.15;2.78;;;;;;;4.57;68.41;101028.63;5092051;28;20075;-82
2021/04/12 04:07:40;;;;;;;3.35;2.70;;;;;;;4.56;69.79;101038.25;5091509;28;20049;-82
2021/04/12 04:10:31;;;;;;;5.35;2.75;;;;;;;4.56;68.62;101043.47;5083954;28;20135;-83
2021/04/12 04:13:30;;;;;;;4.13;2.70;;;;;;;4.56;68.72;101045.28;5083657;28;20056;-83
2021/04/12 04:16:31;;;;;;;5.20;2.78;;;;;;;4.54;68.74;101047.91;5093184;28;20036;-83
2021/04/12 04:19:52;;;;;;;4.95;3.13;;;;;;;4.53;68.46;101058.41;5090084;28;20049;-83
2021/04/12 04:22:42;;;;;;;5.72;2.72;;;;;;;4.54;68.16;101065.41;5049868;28;20106;-83
2021/04/12 04:25:27;;;;;;;5.18;3.20;;;;;;;4.53;68.20;101067.16;5065834;28;20137;-83
2021/04/12 04:28:19;;;;;;;5.25;3.17;;;;;;;4.54;67.56;101074.13;5074866;28;20053;-82
2021/04/12 04:31:03;;;;;;;6.63;4.30;;;;;;;4.53;67.28;101069.78;5068350;28;20618;-82
2021/04/12 04:33:59;;;;;;;6.32;3.17;;;;;;;4.50;67.46;101082.03;5074410;28;20082;-82
2021/04/12 04:36:54;;;;;;;4.78;3.60;;;;;;;4.46;68.52;101086.44;5084389;28;20047;-83
2021/04/12 04:39:58;;;;;;;5.97;3.78;;;;;;;4.44;68.22;101080.34;5099569;28;20060;-83
2021/04/12 04:42:48;;;;;;;7.22;3.95;;;;;;;4.47;68.74;101088.19;5085375;28;20040;-82
2021/04/12 04:45:29;;;;;;;5.57;4.05;;;;;;;4.48;67.85;101096.94;5082994;28;20052;-83
2021/04/12 04:47:55;;;;;;;7.55;4.30;;;;;;;4.47;68.20;101087.31;5075062;28;20346;-83
2021/04/12 04:50:49;;;;;;;9.48;3.83;;;;;;;4.47;67.94;101090.81;5079789;28;20071;-82
2021/04/12 04:53:50;;;;;;;6.97;4.07;;;;;;;4.50;68.89;101097.78;5089350;28;20056;-82
2021/04/12 04:56:50;;;;;;;9.00;4.60;;;;;;;4.52;68.85;101101.25;5084204;28;20040;-82
2021/04/12 04:59:37;;;;;;;6.40;4.25;;;;;;;4.52;67.77;101102.13;5076170;28;20083;-83
2021/04/12 05:02:12;;;;;;;6.50;4.45;;;;;;;4.54;68.18;101105.63;5069404;28;20053;-83
2021/04/12 05:05:02;;;;;;;7.32;4.47;;;;;;;4.54;67.16;101110.84;5079096;28;20054;-82
2021/04/12 05:07:50;;;;;;;10.38;5.03;;;;;;;4.54;68.75;101121.34;5078491;28;20053;-83
2021/04/12 05:10:41;;;;;;;6.68;5.03;;;;;;;4.56;68.23;101127.41;5087734;28;20083;-82
2021/04/12 05:13:18;;;;;;;11.98;6.68;;;;;;;4.56;68.59;101140.53;5073086;28;20048;-82
2021/04/12 05:16:06;;;;;;;8.93;5.45;;;;;;;4.57;68.80;101146.66;5071367;28;20093;-82
2021/04/12 05:18:44;;;;;;;6.32;5.40;;;;;;;4.58;69.08;101149.25;5082333;28;20071;-82
2021/04/12 05:21:54;;;;;;;7.75;5.97;;;;;;;4.56;69.81;101161.50;5078651;28;20060;-83
2021/04/12 05:24:48;;;;;;;9.00;5.55;;;;;;;4.58;69.45;101162.38;5079131;28;20052;-82
2021/04/12 05:27:37;;;;;;;8.43;6.00;;;;;;;4.59;70.25;101161.50;5092860;28;20063;-83
2021/04/12 05:30:40;;;;;;;8.77;5.85;;;;;;;4.69;70.35;101177.16;5080920;28;20056;-82
2021/04/12 05:33:13;;;;;;;10.60;6.63;;;;;;;4.73;70.63;101179.72;5078819;28;20041;-81
2021/04/12 05:35:57;;;;;;;9.32;6.15;;;;;;;4.79;70.30;101184.03;5073334;28;20057;-81
2021/04/12 05:38:34;;;;;;;8.98;6.30;;;;;;;4.82;70.22;101182.25;5066562;28;20064;-82
2021/04/12 05:41:20;;;;;;;8.88;5.93;;;;;;;4.93;69.49;101192.63;5072684;28;20044;-82
2021/04/12 05:44:14;;;;;;;6.85;5.60;;;;;;;5.02;69.06;101200.41;5077515;28;20051;-82
2021/04/12 05:46:49;;;;;;;8.43;6.15;;;;;;;5.12;68.63;101198.53;5081554;28;20036;-82
2021/04/12 05:49:27;;;;;;;9.00;5.95;;;;;;;5.24;67.87;101215.00;5089760;28;20033;-83
2021/04/12 05:52:12;;;;;;;7.07;5.18;;;;;;;5.33;67.70;101218.41;5082697;28;20092;-83
2021/04/12 05:55:09;;;;;;;8.63;5.07;;;;;;;5.43;67.22;101217.41;5089149;28;20040;-83
2021/04/12 05:57:49;;;;;;;8.95;4.70;;;;;;;5.48;65.76;101218.22;5083775;28;20088;-82
2021/04/12 06:00:40;;;;;;;9.48;5.15;;;;;;;5.58;65.46;101222.47;5087859;28;20127;-83
2021/04/12 06:03:34;;;;;;;7.63;5.20;;;;;;;5.73;64.52;101222.25;5082758;28;20072;-83
2021/04/12 06:06:03;;;;;;;7.18;5.35;;;;;;;5.84;64.48;101225.59;5070096;28;20053;-83
2021/04/12 06:09:03;;;;;;;8.38;5.07;;;;;;;5.88;63.60;101219.44;5074091;28;20128;-82
2021/04/12 06:11:51;;;;;;;5.95;4.68;;;;;;;5.93;63.45;101220.25;5074359;28;20055;-83
2021/04/12 06:14:43;;;;;;;7.32;5.15;;;;;;;5.96;63.91;101222.84;5072143;28;20338;-83
2021/04/12 06:17:21;;;;;;;7.53;4.85;;;;;;;6.05;65.10;101228.81;5077393;28;20044;-83
2021/04/12 06:20:13;;;;;;;6.55;4.78;;;;;;;6.14;63.86;101234.81;5070330;28;20056;-82
2021/04/12 06:22:54;;;;;;;6.05;5.45;;;;;;;6.20;63.34;101237.34;5073774;28;20056;-82
2021/04/12 06:25:35;;;;;;;9.45;5.35;;;;;;;6.28;63.03;101246.00;5072036;28;20072;-82
2021/04/12 06:28:50;;;;;;;8.45;5.22;;;;;;;6.37;63.49;101233.59;5075002;28;20079;-83
2021/04/12 06:31:54;;;;;;;6.50;5.07;;;;;;;6.49;62.91;101244.75;5061516;28;20052;-82
2021/04/12 06:34:33;;;;;;;7.07;5.70;;;;;;;6.39;63.09;101239.69;5085274;28;20299;-82
2021/04/12 06:37:29;;;;;;;8.35;5.43;;;;;;;6.26;62.10;101249.53;5090226;28;20074;-81
2021/04/12 06:40:35;;;;;;;6.78;4.70;;;;;;;6.24;62.68;101249.56;5088831;28;20055;-81
2021/04/12 06:43:29;;;;;;;7.25;5.18;;;;;;;6.33;62.27;101254.66;5094846;28;20044;-81
2021/04/12 06:46:45;;;;;;;9.35;5.30;;;;;;;6.56;62.24;101254.31;5093332;28;20047;-81
2021/04/12 06:49:57;;;;;;;8.07;5.13;;;;;;;6.92;60.66;101255.44;5090418;28;20025;-83
2021/04/12 06:53:08;;;;;;;5.65;4.70;;;;;;;7.27;59.72;101260.00;5091686;28;20064;-83
2021/04/12 06:55:58;;;;;;;7.18;5.00;;;;;;;7.58;58.55;101277.84;5085860;28;20056;-83
2021/04/12 06:59:14;;;;;;;6.60;4.78;;;;;;;7.84;57.17;101277.31;5092184;28;20056;-82
2021/04/12 07:02:07;;;;;;;5.47;3.40;;;;;;;7.93;55.34;101275.31;5092217;28;20044;-82
2021/04/12 07:05:11;;;;;;;6.00;4.35;;;;;;;8.14;55.14;101283.66;5053312;28;20056;-83
2021/04/12 07:08:11;;;;;;;5.78;5.00;;;;;;;8.19;55.63;101293.19;5090742;28;20032;-82
2021/04/12 07:11:13;;;;;;;5.75;4.10;;;;;;;8.13;56.26;101290.72;5097708;28;20044;-81
2021/04/12 07:14:12;;;;;;;5.72;4.05;;;;;;;8.19;56.73;101295.84;5094104;28;20028;-82
2021/04/12 07:17:15;;;;;;;5.63;4.38;;;;;;;8.70;55.17;101296.41;5072608;28;20043;-80
2021/04/12 07:20:18;;;;;;;7.40;3.00;;;;;;;8.79;51.37;101292.69;5083182;28;20048;-82
2021/04/12 07:23:28;;;;;;;3.33;1.85;;;;;;;8.81;50.26;101314.63;5083509;28;20131;-82
2021/04/12 07:26:22;;;;;;;5.75;1.67;;;;;;;10.18;47.57;101316.97;5073630;28;20816;-83
2021/04/12 07:29:39;;;;;;;3.83;2.40;;;;;;;11.53;43.85;101314.19;5075998;28;20071;-83
2021/04/12 07:32:35;;;;;;;16.05;8.95;;;;;;;12.98;39.47;101312.03;5095970;28;20107;-82
2021/04/12 07:35:34;;;;;;;2.65;1.15;;;;;;;12.88;38.62;101309.81;5090171;28;20033;-82
2021/04/12 07:38:27;;;;;;;13.43;1.73;;;;;;;13.46;37.25;101312.66;5089429;28;20039;-86
2021/04/12 07:41:01;;;;;;;2.97;1.30;;;;;;;13.55;37.08;101314.88;5100461;28;20025;-81
2021/04/12 07:44:06;;;;;;;2.55;1.55;;;;;;;12.74;38.24;101322.81;5090504;28;20028;-81
2021/04/12 07:46:51;;;;;;;5.05;1.38;;;;;;;11.39;40.56;101326.22;5091217;28;20037;-79
2021/04/12 07:49:49;;;;;;;1.90;1.35;;;;;;;10.65;42.93;101338.44;5088398;28;20060;-84
2021/04/12 07:52:43;;;;;;;4.63;2.97;;;;;;;9.65;46.80;101349.38;5074347;28;20057;-82
2021/04/12 07:55:29;;;;;;;5.90;2.75;;;;;;;9.33;48.50;101343.19;5067118;28;20201;-82
2021/04/12 07:57:58;;;;;;;5.00;3.40;;;;;;;9.45;49.37;101350.78;5070063;28;20052;-83
2021/04/12 08:00:56;;;;;;;7.70;4.20;;;;;;;9.50;48.91;101350.69;5081387;28;20075;-83
2021/04/12 08:04:07;;;;;;;5.47;3.70;;;;;;;9.44;49.78;101349.06;5078248;28;20049;-84
2021/04/12 08:06:58;;;;;;;4.15;2.50;;;;;;;9.33;48.11;101352.91;5015031;28;20134;-83
2021/04/12 08:10:02;;;;;;;5.85;2.88;;;;;;;9.34;47.69;101357.28;5069152;28;20596;-82
2021/04/12 08:13:13;;;;;;;7.25;3.42;;;;;;;9.67;47.64;101356.38;5071257;28;20114;-83
2021/04/12 08:16:07;;;;;;;11.27;1.67;;;;;;;9.68;45.60;101365.16;5069872;28;20045;-84
2021/04/12 08:19:06;;;;;;;3.42;1.50;;;;;;;9.46;46.30;101371.03;5072668;28;20052;-84
2021/04/12 08:22:09;;;;;;;3.22;1.60;;;;;;;9.20;46.32;101370.88;5072894;28;20056;-83
2021/04/12 08:24:51;;;;;;;5.13;2.15;;;;;;;8.74;47.19;101379.06;5074522;28;20052;-85
2021/04/12 08:28:05;;;;;;;2.88;1.92;;;;;;;8.38;49.09;101378.13;5083886;28;20052;-83
2021/04/12 08:31:28;;;;;;;4.70;2.00;;;;;;;8.15;49.38;101385.66;5030526;28;20053;-83
2021/04/12 08:34:19;;;;;;;6.57;2.28;;;;;;;8.10;49.74;101394.53;4996786;28;20061;-84
2021/04/12 08:37:19;;;;;;;3.90;2.00;;;;;;;8.06;49.65;101395.47;4997207;28;20054;-83
2021/04/12 08:40:03;;;;;;;6.82;2.20;;;;;;;8.00;49.41;101400.03;5064965;28;20079;-82
2021/04/12 08:42:57;;;;;;;4.78;2.45;;;;;;;8.05;49.19;101401.66;5073123;28;20135;-81
2021/04/12 08:45:39;;;;;;;6.97;3.08;;;;;;;8.09;49.66;101403.34;5063579;28;20135;-85
2021/04/12 08:48:17;;;;;;;4.82;2.60;;;;;;;8.01;49.50;101410.56;5068346;28;20063;-83
2021/04/12 08:51:21;;;;;;;5.72;2.90;;;;;;;8.10;50.71;101406.84;5073319;28;20121;-82
2021/04/12 08:53:58;;;;;;;7.43;3.13;;;;;;;8.13;48.99;101409.44;5068668;28;20547;-80
2021/04/12 08:56:28;;;;;;;6.28;2.88;;;;;;;8.11;48.69;101408.59;5044206;28;20107;-81
2021/04/12 08:59:00;;;;;;;3.70;3.13;;;;;;;7.99;49.46;101417.63;5070770;28;20059;-82
2021/04/12 09:02:05;;;;;;;6.35;3.28;;;;;;;7.94;49.75;101418.59;5071506;28;20052;-83
2021/04/12 09:04:52;;;;;;;4.50;3.30;;;;;;;8.07;49.01;101426.25;5038700;28;20080;-82
2021/04/12 09:07:49;;;;;;;6.20;3.58;;;;;;;8.31;48.22;101432.78;5073771;28;20072;-82
2021/04/12 09:10:52;;;;;;;7.53;3.15;;;;;;;8.50;47.23;101429.81;5067976;28;20107;-80
2021/04/12 09:13:42;;;;;;;4.22;2.78;;;;;;;8.75;46.91;101431.84;5074542;28;20048;-82
2021/04/12 09:16:27;;;;;;;6.95;3.70;;;;;;;9.12;46.08;101425.69;5092233;28;20040;-81
2021/04/12 09:18:59;;;;;;;8.75;3.55;;;;;;;9.14;45.83;101426.50;5089121;28;20083;-84
2021/04/12 09:21:42;;;;;;;4.68;3.22;;;;;;;8.91;45.83;101434.13;5079188;28;20045;-83
2021/04/12 09:24:42;;;;;;;6.97;3.28;;;;;;;8.74;45.34;101438.03;5080591;28;20048;-83
2021/04/12 09:27:30;;;;;;;6.05;3.00;;;;;;;8.53;44.43;101430.56;5063443;28;20148;-82
2021/04/12 09:30:10;;;;;;;7.38;3.08;;;;;;;8.28;45.11;101443.41;5071931;28;20128;-81
2021/04/12 09:32:57;;;;;;;4.28;2.90;;;;;;;8.14;46.26;101439.31;5072451;28;20040;-81
2021/04/12 09:35:50;;;;;;;4.22;3.08;;;;;;;8.44;45.20;101441.34;5068478;28;20075;-82
2021/04/12 09:38:53;;;;;;;7.10;5.00;;;;;;;8.55;47.87;101447.25;5067838;28;20040;-82
2021/04/12 09:41:56;;;;;;;10.77;5.80;;;;;;;8.47;47.33;101436.00;5070817;28;20054;-82
2021/04/12 09:44:44;;;;;;;8.38;5.80;;;;;;;8.56;48.03;101438.44;5068861;28;20049;-83
2021/04/12 09:47:25;;;;;;;9.00;5.55;;;;;;;8.70;48.39;101440.75;5075990;28;20154;-84
2021/04/12 09:50:07;;;;;;;8.50;4.85;;;;;;;8.74;46.76;101440.66;5072230;28;20111;-82
2021/04/12 09:53:02;;;;;;;6.60;4.30;;;;;;;8.76;44.17;101438.88;5068978;28;20057;-83
2021/04/12 09:55:32;;;;;;;7.55;4.30;;;;;;;8.87;43.78;101437.75;5065982;28;20060;-83
2021/04/12 09:58:23;;;;;;;5.80;3.60;;;;;;;8.95;43.29;101443.72;5067346;28;20814;-83
2021/04/12 10:01:27;;;;;;;6.18;3.80;;;;;;;9.17;42.65;101441.41;5073539;28;20056;-81
2021/04/12 10:04:47;;;;;;;4.20;3.63;;;;;;;9.56;42.60;101440.44;5014086;28;20080;-82
2021/04/12 10:07:40;;;;;;;6.75;4.15;;;;;;;9.80;41.96;101429.19;4995896;28;20058;-83
2021/04/12 10:10:27;;;;;;;7.78;4.07;;;;;;;10.07;41.38;101446.06;5071684;28;20071;-81
2021/04/12 10:13:01;;;;;;;6.07;3.58;;;;;;;10.17;41.79;101436.97;5070379;28;20040;-81
2021/04/12 10:15:40;;;;;;;8.57;3.17;;;;;;;9.97;40.42;101455.16;5079218;28;20033;-83
2021/04/12 10:18:15;;;;;;;7.53;3.28;;;;;;;9.59;40.80;101450.94;5084141;28;20045;-83
2021/04/12 10:20:54;;;;;;;6.20;3.33;;;;;;;9.28;41.54;101442.03;5081718;28;20036;-83
2021/04/12 10:23:25;;;;;;;4.53;3.30;;;;;;;9.32;42.13;101436.63;5086496;28;20028;-82
2021/04/12 10:26:04;;;;;;;3.30;2.97;;;;;;;9.57;40.62;101443.94;5086975;28;20036;-83
2021/04/12 10:28:40;;;;;;;5.07;2.40;;;;;;;9.69;38.91;101451.53;5088208;28;20032;-83
2021/04/12 10:31:27;;;;;;;5.22;2.35;;;;;;;9.89;38.03;101429.84;5095074;28;20041;-82
2021/04/12 10:34:17;;;;;;;6.18;2.60;;;;;;;10.14;37.42;101430.88;5093126;28;20034;-83
2021/04/12 10:37:13;;;;;;;5.45;2.10;;;;;;;10.02;38.47;101440.03;5099453;28;20094;-83
2021/04/12 10:40:08;;;;;;;3.08;1.92;;;;;;;9.81;38.83;101441.50;5099151;28;20051;-81
2021/04/12 10:42:58;;;;;;;2.85;1.85;;;;;;;9.65;39.13;101440.16;5094097;28;20053;-82
2021/04/12 10:45:56;;;;;;;3.60;1.98;;;;;;;9.49;38.82;101434.41;5086529;28;20339;-82
2021/04/12 10:48:34;;;;;;;3.72;2.20;;;;;;;9.43;38.84;101445.16;5059856;28;20071;-83
2021/04/12 10:51:25;;;;;;;2.20;2.00;;;;;;;9.69;37.62;101433.91;5083055;28;20044;-83
2021/04/12 10:53:51;;;;;;;3.33;2.25;;;;;;;10.15;38.05;101427.31;5077309;28;20048;-82
2021/04/12 10:56:32;;;;;;;3.58;2.10;;;;;;;10.41;37.19;101426.59;5074194;28;20048;-83
2021/04/12 10:59:08;;;;;;;5.20;2.30;;;;;;;10.54;36.42;101420.03;5073788;28;20054;-83
2021/04/12 11:01:40;;;;;;;4.38;2.22;;;;;;;10.59;36.97;101423.38;5076695;28;20048;-82
2021/04/12 11:04:20;;;;;;;3.45;2.38;;;;;;;10.28;38.19;101422.56;5074512;28;20078;-82
2021/04/12 11:07:01;;;;;;;4.55;3.08;;;;;;;10.03;38.45;101427.69;5091781;28;20059;-82
2021/04/12 11:09:52;;;;;;;3.55;2.92;;;;;;;9.87;38.78;101426.38;5089279;28;20064;-82
2021/04/12 11:12:27;;;;;;;4.82;3.03;;;;;;;9.65;39.52;101432.25;5079249;28;20629;-82
2021/04/12 11:15:35;;;;;;;4.72;2.80;;;;;;;9.63;39.86;101435.81;5080629;28;20171;-83
2021/04/12 11:18:25;;;;;;;5.20;2.92;;;;;;;9.67;40.43;101425.13;5059852;28;20043;-82
2021/04/12 11:21:31;;;;;;;7.38;2.97;;;;;;;9.60;41.29;101428.00;5085032;28;20041;-82
2021/04/12 11:24:06;;;;;;;8.07;3.30;;;;;;;9.66;42.24;101438.41;5068393;28;20166;-82
2021/04/12 11:26:54;;;;;;;6.07;3.88;;;;;;;9.70;42.83;101435.63;5072304;28;20055;-83
2021/04/12 11:29:28;;;;;;;;;;;;;;;9.77;42.72;101446.91;5074813;28;20490;-83
2021/04/12 11:32:15;;;;;;;6.75;3.53;;;;;;;9.83;41.89;101434.38;5075642;28;19929;-82
2021/04/12 11:34:57;;;;;;;4.70;3.80;;;;;;;9.72;41.59;101432.94;5068464;28;20090;-82
2021/04/12 11:38:01;;;;;;;5.65;3.50;;;;;;;9.73;42.36;101430.28;5071236;28;20062;-82
2021/04/12 11:40:34;;;;;;;3.78;2.63;;;;;;;10.11;40.39;101423.03;5074910;28;20044;-82
2021/04/12 11:43:12;;;;;;;;;;;;;;;10.52;38.23;101419.22;5073029;28;20778;-81
2021/04/12 11:45:51;;;;;;;4.55;3.17;;;;;;;10.77;36.84;101409.56;5074307;28;19915;-82
2021/04/12 11:48:25;;;;;;;7.47;2.80;;;;;;;11.05;36.64;101416.63;5070587;28;20059;-83
2021/04/12 11:51:09;;;;;;;4.50;2.70;;;;;;;10.82;35.56;101420.91;5070813;28;20048;-84
2021/04/12 11:53:49;;;;;;;2.63;2.10;;;;;;;10.52;36.51;101421.84;5071467;28;20525;-84
2021/04/12 11:56:58;;;;;;;4.53;2.40;;;;;;;10.50;36.50;101424.53;5071828;28;20045;-82
2021/04/12 11:59:30;;;;;;;4.95;2.35;;;;;;;10.60;35.98;101432.19;5082336;28;20048;-82
2021/04/12 12:02:25;;;;;;;2.45;2.08;;;;;;;10.76;34.91;101425.50;5088482;28;20396;-82
2021/04/12 12:05:02;;;;;;;3.25;2.13;;;;;;;10.73;35.53;101415.00;5086776;28;21246;-82
2021/04/12 12:07:41;;;;;;;2.85;1.60;;;;;;;10.80;35.41;101422.72;5079213;28;20116;-82
2021/04/12 12:10:37;;;;;;;1.90;1.80;;;;;;;11.01;36.22;101420.31;5072333;28;20045;-82
2021/04/12 12:13:38;;;;;;;2.70;1.75;;;;;;;11.22;35.64;101414.28;5078767;28;20053;-82
2021/04/12 12:16:24;;;;;;;3.20;1.73;;;;;;;11.67;35.12;101424.25;5084784;28;20049;-83
2021/04/12 12:19:20;;;;;;;3.95;1.58;;;;;;;11.68;34.46;101412.72;5078133;28;20086;-83
2021/04/12 12:22:00;;;;;;;1.83;1.70;;;;;;;11.41;34.09;101425.16;5084343;28;20086;-83
2021/04/12 12:24:42;;;;;;;3.15;1.80;;;;;;;11.15;34.63;101408.34;5075831;28;20048;-83
2021/04/12 12:27:27;;;;;;;2.72;1.70;;;;;;;10.84;35.20;101416.44;5071551;28;20055;-82
2021/04/12 12:30:27;;;;;;;3.92;1.75;;;;;;;11.03;35.35;101418.47;5070305;28;20776;-84
2021/04/12 12:33:11;;;;;;;3.05;1.88;;;;;;;11.23;35.48;101408.06;5068935;28;20060;-83
2021/04/12 12:35:55;;;;;;;3.05;2.00;;;;;;;11.23;35.27;101413.38;5065698;28;20068;-83
2021/04/12 12:38:30;;;;;;;2.55;1.90;;;;;;;11.60;35.39;101413.84;5074815;28;20071;-82
2021/04/12 12:41:02;;;;;;;2.95;1.95;;;;;;;11.83;34.18;101409.53;5069347;28;20040;-82
2021/04/12 12:43:37;;;;;;;3.38;2.00;;;;;;;11.69;35.29;101409.13;5078185;28;20049;-83
2021/04/12 12:46:27;;;;;;;2.03;1.83;;;;;;;11.48;35.34;101413.44;5086784;28;20048;-85
2021/04/12 12:49:30;;;;;;;3.35;1.90;;;;;;;11.36;35.34;101421.78;5081735;28;20036;-84
2021/04/12 12:52:30;;;;;;;3.20;1.80;;;;;;;11.15;36.67;101407.47;5078870;28;20051;-83
2021/04/12 12:55:10;;;;;;;1.90;1.38;;;;;;;11.22;35.50;101430.19;5080586;28;20074;-83
2021/04/12 12:57:41;;;;;;;2.97;1.50;;;;;;;11.22;34.94;101423.09;5081808;28;20250;-82
2021/04/12 13:00:34;;;;;;;3.95;1.20;;;;;;;11.25;35.07;101424.78;5091825;28;20045;-81
2021/04/12 13:03:19;;;;;;;2.95;1.80;;;;;;;11.26;36.06;101431.84;5082350;28;20152;-82
2021/04/12 13:05:50;;;;;;;1.38;1.10;;;;;;;11.45;37.10;101437.41;5090489;28;20052;-82
2021/04/12 13:08:29;;;;;;;3.20;1.20;;;;;;;11.66;36.42;101433.13;5072381;28;20153;-82
2021/04/12 13:10:56;;;;;;;2.03;0.90;;;;;;;11.66;36.26;101438.41;5091498;28;20102;-82
2021/04/12 13:13:34;;;;;;;3.70;1.20;;;;;;;11.65;36.55;101434.06;5074631;28;20060;-82